sensor_id;sensor_type;location;lat;lon;timestamp;pressure;altitude;pressure_sealevel;temperature;humidity
78667;BME280;67983;59.830;30.198;2023-03-14T00:01:23;98817.66;;;0.82;69.58
78667;BME280;67983;59.830;30.198;2023-03-14T00:03:52;98811.34;;;0.86;69.41
78667;BME280;67983;59.830;30.198;2023-03-14T00:06:20;98793.72;;;0.90;69.62
78667;BME280;67983;59.830;30.198;2023-03-14T00:08:47;98797.13;;;0.92;69.53
78667;BME280;67983;59.830;30.198;2023-03-14T00:11:20;98798.78;;;0.93;69.57
78667;BME280;67983;59.830;30.198;2023-03-14T00:13:51;98785.75;;;0.93;69.60
78667;BME280;67983;59.830;30.198;2023-03-14T00:16:19;98779.41;;;0.97;69.27
78667;BME280;67983;59.830;30.198;2023-03-14T00:18:53;98760.19;;;0.98;69.72
78667;BME280;67983;59.830;30.198;2023-03-14T00:21:20;98758.31;;;1.00;69.69
78667;BME280;67983;59.830;30.198;2023-03-14T00:23:47;98763.28;;;1.05;69.63
78667;BME280;67983;59.830;30.198;2023-03-14T00:26:17;98735.56;;;1.02;69.29
78667;BME280;67983;59.830;30.198;2023-03-14T00:28:45;98742.97;;;1.10;69.20
78667;BME280;67983;59.830;30.198;2023-03-14T00:31:13;98742.03;;;1.11;69.32
78667;BME280;67983;59.830;30.198;2023-03-14T00:33:43;98718.34;;;1.14;69.41
78667;BME280;67983;59.830;30.198;2023-03-14T00:36:13;98715.72;;;1.14;69.43
78667;BME280;67983;59.830;30.198;2023-03-14T00:38:42;98705.38;;;1.12;69.68
78667;BME280;67983;59.830;30.198;2023-03-14T00:41:11;98720.88;;;1.15;69.69
78667;BME280;67983;59.830;30.198;2023-03-14T00:43:39;98706.13;;;1.14;69.37
78667;BME280;67983;59.830;30.198;2023-03-14T00:46:06;98707.06;;;1.13;69.46
78667;BME280;67983;59.830;30.198;2023-03-14T00:48:36;98690.44;;;1.14;69.77
78667;BME280;67983;59.830;30.198;2023-03-14T00:51:08;98680.75;;;1.16;69.67
78667;BME280;67983;59.830;30.198;2023-03-14T00:53:38;98681.59;;;1.17;69.98
78667;BME280;67983;59.830;30.198;2023-03-14T00:56:09;98662.38;;;1.18;69.84
78667;BME280;67983;59.830;30.198;2023-03-14T00:58:37;98682.44;;;1.17;70.15
78667;BME280;67983;59.830;30.198;2023-03-14T01:01:06;98656.13;;;1.20;70.00
78667;BME280;67983;59.830;30.198;2023-03-14T01:03:35;98641.28;;;1.21;69.86
78667;BME280;67983;59.830;30.198;2023-03-14T01:06:10;98631.66;;;1.22;69.93
78667;BME280;67983;59.830;30.198;2023-03-14T01:08:43;98617.97;;;1.18;69.86
78667;BME280;67983;59.830;30.198;2023-03-14T01:11:13;98632.50;;;1.22;69.84
78667;BME280;67983;59.830;30.198;2023-03-14T01:13:41;98623.84;;;1.22;70.16
78667;BME280;67983;59.830;30.198;2023-03-14T01:16:10;98622.00;;;1.24;70.33
78667;BME280;67983;59.830;30.198;2023-03-14T01:18:39;98617.41;;;1.27;70.69
78667;BME280;67983;59.830;30.198;2023-03-14T01:21:11;98597.25;;;1.29;71.08
78667;BME280;67983;59.830;30.198;2023-03-14T01:24:06;98591.00;;;1.32;71.03
78667;BME280;67983;59.830;30.198;2023-03-14T01:26:35;98578.78;;;1.32;71.78
78667;BME280;67983;59.830;30.198;2023-03-14T01:29:04;98577.94;;;1.32;72.12
78667;BME280;67983;59.830;30.198;2023-03-14T01:31:33;98580.34;;;1.35;72.17
78667;BME280;67983;59.830;30.198;2023-03-14T01:34:01;98563.72;;;1.36;72.30
78667;BME280;67983;59.830;30.198;2023-03-14T01:36:28;98568.69;;;1.40;72.57
78667;BME280;67983;59.830;30.198;2023-03-14T01:38:55;98553.84;;;1.41;72.24
78667;BME280;67983;59.830;30.198;2023-03-14T01:41:26;98541.41;;;1.44;72.56
78667;BME280;67983;59.830;30.198;2023-03-14T01:43:55;98532.66;;;1.45;72.69
78667;BME280;67983;59.830;30.198;2023-03-14T01:46:29;98503.28;;;1.42;72.56
78667;BME280;67983;59.830;30.198;2023-03-14T01:49:09;98529.47;;;1.55;72.77
78667;BME280;67983;59.830;30.198;2023-03-14T01:51:44;98522.34;;;1.57;72.88
78667;BME280;67983;59.830;30.198;2023-03-14T01:54:17;98522.16;;;1.60;72.89
78667;BME280;67983;59.830;30.198;2023-03-14T01:56:52;98496.13;;;1.58;73.04
78667;BME280;67983;59.830;30.198;2023-03-14T01:59:24;98516.50;;;1.66;73.25
78667;BME280;67983;59.830;30.198;2023-03-14T02:01:54;98499.16;;;1.65;73.07
78667;BME280;67983;59.830;30.198;2023-03-14T02:04:25;98493.72;;;1.68;73.22
78667;BME280;67983;59.830;30.198;2023-03-14T02:07:01;98484.88;;;1.70;73.05
78667;BME280;67983;59.830;30.198;2023-03-14T02:09:38;98482.88;;;1.74;73.13
78667;BME280;67983;59.830;30.198;2023-03-14T02:12:12;98453.81;;;1.78;73.26
78667;BME280;67983;59.830;30.198;2023-03-14T02:14:50;98460.72;;;1.79;72.99
78667;BME280;67983;59.830;30.198;2023-03-14T02:17:23;98467.34;;;1.85;73.14
78667;BME280;67983;59.830;30.198;2023-03-14T02:20:25;98452.28;;;1.89;73.03
78667;BME280;67983;59.830;30.198;2023-03-14T02:22:57;98447.78;;;1.91;73.28
78667;BME280;67983;59.830;30.198;2023-03-14T02:25:34;98448.50;;;1.93;73.29
78667;BME280;67983;59.830;30.198;2023-03-14T02:28:07;98458.84;;;1.94;72.89
78667;BME280;67983;59.830;30.198;2023-03-14T02:30:36;98435.94;;;1.98;73.02
78667;BME280;67983;59.830;30.198;2023-03-14T02:33:05;98448.19;;;1.97;73.00
78667;BME280;67983;59.830;30.198;2023-03-14T02:35:36;98448.00;;;2.00;73.17
78667;BME280;67983;59.830;30.198;2023-03-14T02:38:10;98431.16;;;2.04;73.30
78667;BME280;67983;59.830;30.198;2023-03-14T02:40:43;98433.44;;;2.09;73.30
78667;BME280;67983;59.830;30.198;2023-03-14T02:43:16;98430.63;;;2.12;73.21
78667;BME280;67983;59.830;30.198;2023-03-14T02:45:50;98412.00;;;2.17;73.10
78667;BME280;67983;59.830;30.198;2023-03-14T02:48:22;98423.00;;;2.22;72.95
78667;BME280;67983;59.830;30.198;2023-03-14T02:50:54;98417.53;;;2.25;73.11
78667;BME280;67983;59.830;30.198;2023-03-14T02:53:25;98409.69;;;2.25;73.35
78667;BME280;67983;59.830;30.198;2023-03-14T02:55:55;98399.84;;;2.28;73.10
78667;BME280;67983;59.830;30.198;2023-03-14T02:58:25;98409.06;;;2.34;73.07
78667;BME280;67983;59.830;30.198;2023-03-14T03:01:00;98393.25;;;2.35;73.33
78667;BME280;67983;59.830;30.198;2023-03-14T03:03:28;98396.25;;;2.42;73.14
78667;BME280;67983;59.830;30.198;2023-03-14T03:05:56;98404.66;;;2.47;73.48
78667;BME280;67983;59.830;30.198;2023-03-14T03:08:25;98394.56;;;2.54;72.78
78667;BME280;67983;59.830;30.198;2023-03-14T03:10:53;98384.59;;;2.59;72.86
78667;BME280;67983;59.830;30.198;2023-03-14T03:13:23;98374.06;;;2.60;73.01
78667;BME280;67983;59.830;30.198;2023-03-14T03:15:57;98376.34;;;2.65;73.33
78667;BME280;67983;59.830;30.198;2023-03-14T03:18:25;98368.75;;;2.73;73.24
78667;BME280;67983;59.830;30.198;2023-03-14T03:20:53;98378.09;;;2.77;72.95
78667;BME280;67983;59.830;30.198;2023-03-14T03:23:23;98376.19;;;2.79;72.90
78667;BME280;67983;59.830;30.198;2023-03-14T03:25:51;98365.50;;;2.82;72.94
78667;BME280;67983;59.830;30.198;2023-03-14T03:28:19;98360.97;;;2.84;72.75
78667;BME280;67983;59.830;30.198;2023-03-14T03:30:46;98365.75;;;2.90;72.63
78667;BME280;67983;59.830;30.198;2023-03-14T03:33:16;98370.91;;;2.92;72.50
78667;BME280;67983;59.830;30.198;2023-03-14T03:35:47;98360.94;;;2.97;72.52
78667;BME280;67983;59.830;30.198;2023-03-14T03:38:19;98350.94;;;3.02;72.61
78667;BME280;67983;59.830;30.198;2023-03-14T03:40:48;98349.75;;;3.06;72.72
78667;BME280;67983;59.830;30.198;2023-03-14T03:43:16;98351.84;;;3.14;72.52
78667;BME280;67983;59.830;30.198;2023-03-14T03:45:46;98338.84;;;3.12;72.56
78667;BME280;67983;59.830;30.198;2023-03-14T03:48:13;98365.41;;;3.19;72.43
78667;BME280;67983;59.830;30.198;2023-03-14T03:50:45;98338.91;;;3.23;72.37
78667;BME280;67983;59.830;30.198;2023-03-14T03:53:19;98367.50;;;3.26;72.00
78667;BME280;67983;59.830;30.198;2023-03-14T03:55:46;98354.28;;;3.28;72.16
78667;BME280;67983;59.830;30.198;2023-03-14T03:58:13;98342.59;;;3.32;72.27
78667;BME280;67983;59.830;30.198;2023-03-14T04:00:41;98331.88;;;3.35;71.92
78667;BME280;67983;59.830;30.198;2023-03-14T04:03:08;98342.16;;;3.38;71.83
78667;BME280;67983;59.830;30.198;2023-03-14T04:05:35;98362.91;;;3.41;72.06
78667;BME280;67983;59.830;30.198;2023-03-14T04:08:10;98337.16;;;3.46;72.01
78667;BME280;67983;59.830;30.198;2023-03-14T04:10:37;98327.06;;;3.53;72.06
78667;BME280;67983;59.830;30.198;2023-03-14T04:13:09;98342.34;;;3.59;71.73
78667;BME280;67983;59.830;30.198;2023-03-14T04:15:38;98318.63;;;3.60;71.81
78667;BME280;67983;59.830;30.198;2023-03-14T04:18:18;98343.63;;;3.65;71.76
78667;BME280;67983;59.830;30.198;2023-03-14T04:20:51;98316.97;;;3.71;71.61
78667;BME280;67983;59.830;30.198;2023-03-14T04:23:22;98319.81;;;3.79;71.49
78667;BME280;67983;59.830;30.198;2023-03-14T04:25:50;98314.84;;;3.87;71.23
78667;BME280;67983;59.830;30.198;2023-03-14T04:28:18;98305.78;;;3.91;71.70
78667;BME280;67983;59.830;30.198;2023-03-14T04:30:45;98313.28;;;3.96;71.54
78667;BME280;67983;59.830;30.198;2023-03-14T04:33:16;98305.91;;;4.01;71.69
78667;BME280;67983;59.830;30.198;2023-03-14T04:35:53;98299.56;;;4.03;71.91
78667;BME280;67983;59.830;30.198;2023-03-14T04:38:23;98301.00;;;4.07;72.02
78667;BME280;67983;59.830;30.198;2023-03-14T04:40:50;98305.03;;;4.11;72.34
78667;BME280;67983;59.830;30.198;2023-03-14T04:43:24;98290.13;;;4.12;72.78
78667;BME280;67983;59.830;30.198;2023-03-14T04:45:58;98269.75;;;4.15;72.53
78667;BME280;67983;59.830;30.198;2023-03-14T04:48:26;98293.84;;;4.20;73.07
78667;BME280;67983;59.830;30.198;2023-03-14T04:50:55;98279.25;;;4.28;72.93
78667;BME280;67983;59.830;30.198;2023-03-14T04:53:24;98271.88;;;4.33;73.11
78667;BME280;67983;59.830;30.198;2023-03-14T04:55:55;98277.84;;;4.35;73.61
78667;BME280;67983;59.830;30.198;2023-03-14T04:58:27;98272.91;;;4.41;73.60
78667;BME280;67983;59.830;30.198;2023-03-14T05:01:01;98271.63;;;4.47;73.68
78667;BME280;67983;59.830;30.198;2023-03-14T05:03:56;98263.34;;;4.52;74.36
78667;BME280;67983;59.830;30.198;2023-03-14T05:06:42;98286.59;;;4.56;74.44
78667;BME280;67983;59.830;30.198;2023-03-14T05:09:37;98262.63;;;4.61;75.07
78667;BME280;67983;59.830;30.198;2023-03-14T05:12:13;98277.75;;;4.68;75.25
78667;BME280;67983;59.830;30.198;2023-03-14T05:14:52;98269.97;;;4.78;75.25
78667;BME280;67983;59.830;30.198;2023-03-14T05:17:48;98270.16;;;4.86;75.53
78667;BME280;67983;59.830;30.198;2023-03-14T05:20:36;98281.03;;;4.93;75.88
78667;BME280;67983;59.830;30.198;2023-03-14T05:23:39;98277.75;;;5.00;75.61
78667;BME280;67983;59.830;30.198;2023-03-14T05:26:37;98264.13;;;5.06;75.84
78667;BME280;67983;59.830;30.198;2023-03-14T05:29:29;98254.19;;;5.10;75.75
78667;BME280;67983;59.830;30.198;2023-03-14T05:32:16;98272.28;;;5.24;75.90
78667;BME280;67983;59.830;30.198;2023-03-14T05:35:06;98269.00;;;5.32;75.06
78667;BME280;67983;59.830;30.198;2023-03-14T05:37:53;98270.16;;;5.39;75.56
78667;BME280;67983;59.830;30.198;2023-03-14T05:40:45;98276.25;;;5.39;74.53
78667;BME280;67983;59.830;30.198;2023-03-14T05:43:32;98258.41;;;5.43;74.57
78667;BME280;67983;59.830;30.198;2023-03-14T05:46:15;98270.47;;;5.46;74.60
78667;BME280;67983;59.830;30.198;2023-03-14T05:48:59;98258.84;;;5.48;74.57
78667;BME280;67983;59.830;30.198;2023-03-14T05:51:48;98277.59;;;5.55;74.43
78667;BME280;67983;59.830;30.198;2023-03-14T05:54:27;98258.66;;;5.61;74.78
78667;BME280;67983;59.830;30.198;2023-03-14T05:57:07;98267.81;;;5.66;74.24
78667;BME280;67983;59.830;30.198;2023-03-14T05:59:56;98277.94;;;5.71;74.30
78667;BME280;67983;59.830;30.198;2023-03-14T06:02:52;98260.94;;;5.75;74.31
78667;BME280;67983;59.830;30.198;2023-03-14T06:05:26;98269.38;;;5.79;74.07
78667;BME280;67983;59.830;30.198;2023-03-14T06:08:01;98266.38;;;5.83;73.88
78667;BME280;67983;59.830;30.198;2023-03-14T06:10:31;98245.34;;;5.83;74.41
78667;BME280;67983;59.830;30.198;2023-03-14T06:12:58;98257.53;;;5.84;74.09
78667;BME280;67983;59.830;30.198;2023-03-14T06:15:28;98261.56;;;5.88;74.02
78667;BME280;67983;59.830;30.198;2023-03-14T06:17:56;98260.34;;;5.92;74.03
78667;BME280;67983;59.830;30.198;2023-03-14T06:20:24;98245.84;;;5.98;74.59
78667;BME280;67983;59.830;30.198;2023-03-14T06:22:51;98258.47;;;6.04;74.49
78667;BME280;67983;59.830;30.198;2023-03-14T06:25:18;98251.69;;;6.11;74.47
78667;BME280;67983;59.830;30.198;2023-03-14T06:27:47;98251.16;;;6.17;73.95
78667;BME280;67983;59.830;30.198;2023-03-14T06:30:16;98247.72;;;6.26;74.67
78667;BME280;67983;59.830;30.198;2023-03-14T06:32:45;98253.44;;;6.41;74.05
78667;BME280;67983;59.830;30.198;2023-03-14T06:35:14;98254.97;;;6.53;74.42
78667;BME280;67983;59.830;30.198;2023-03-14T06:37:43;98252.66;;;6.60;73.78
78667;BME280;67983;59.830;30.198;2023-03-14T06:40:14;98256.94;;;6.71;73.56
78667;BME280;67983;59.830;30.198;2023-03-14T06:42:54;98253.91;;;6.75;73.45
78667;BME280;67983;59.830;30.198;2023-03-14T06:45:22;98259.88;;;6.77;73.23
78667;BME280;67983;59.830;30.198;2023-03-14T06:47:51;98270.28;;;6.79;72.70
78667;BME280;67983;59.830;30.198;2023-03-14T06:50:24;98276.53;;;6.78;73.09
78667;BME280;67983;59.830;30.198;2023-03-14T06:52:56;98268.63;;;6.78;72.87
78667;BME280;67983;59.830;30.198;2023-03-14T06:55:25;98299.28;;;6.79;73.01
78667;BME280;67983;59.830;30.198;2023-03-14T06:57:53;98292.34;;;6.78;73.15
78667;BME280;67983;59.830;30.198;2023-03-14T07:00:21;98303.56;;;6.80;73.34
78667;BME280;67983;59.830;30.198;2023-03-14T07:03:20;98303.16;;;6.84;73.42
78667;BME280;67983;59.830;30.198;2023-03-14T07:05:51;98300.81;;;6.91;73.36
78667;BME280;67983;59.830;30.198;2023-03-14T07:08:18;98309.56;;;6.92;72.89
78667;BME280;67983;59.830;30.198;2023-03-14T07:10:46;98317.19;;;6.95;73.18
78667;BME280;67983;59.830;30.198;2023-03-14T07:13:13;98311.50;;;6.99;73.19
78667;BME280;67983;59.830;30.198;2023-03-14T07:15:55;98310.38;;;7.02;73.36
78667;BME280;67983;59.830;30.198;2023-03-14T07:18:25;98311.78;;;7.06;73.35
78667;BME280;67983;59.830;30.198;2023-03-14T07:20:52;98318.59;;;7.08;73.24
78667;BME280;67983;59.830;30.198;2023-03-14T07:23:19;98328.56;;;7.14;73.24
78667;BME280;67983;59.830;30.198;2023-03-14T07:25:50;98329.69;;;7.22;73.25
78667;BME280;67983;59.830;30.198;2023-03-14T07:28:21;98334.56;;;7.26;72.84
78667;BME280;67983;59.830;30.198;2023-03-14T07:30:54;98338.84;;;7.27;72.63
78667;BME280;67983;59.830;30.198;2023-03-14T07:33:28;98354.41;;;7.30;72.73
78667;BME280;67983;59.830;30.198;2023-03-14T07:35:55;98339.84;;;7.36;72.57
78667;BME280;67983;59.830;30.198;2023-03-14T07:38:22;98329.53;;;7.42;72.44
78667;BME280;67983;59.830;30.198;2023-03-14T07:41:07;98334.09;;;7.50;72.46
78667;BME280;67983;59.830;30.198;2023-03-14T07:43:44;98344.94;;;7.57;72.46
78667;BME280;67983;59.830;30.198;2023-03-14T07:46:11;98342.56;;;7.63;71.91
78667;BME280;67983;59.830;30.198;2023-03-14T07:48:39;98338.25;;;7.72;71.79
78667;BME280;67983;59.830;30.198;2023-03-14T07:51:06;98332.25;;;7.79;71.93
78667;BME280;67983;59.830;30.198;2023-03-14T07:53:33;98345.44;;;7.89;71.59
78667;BME280;67983;59.830;30.198;2023-03-14T07:56:01;98336.84;;;7.97;71.56
78667;BME280;67983;59.830;30.198;2023-03-14T07:58:32;98349.16;;;7.96;71.27
78667;BME280;67983;59.830;30.198;2023-03-14T08:01:00;98360.00;;;8.03;71.15
78667;BME280;67983;59.830;30.198;2023-03-14T08:03:27;98357.22;;;8.04;71.18
78667;BME280;67983;59.830;30.198;2023-03-14T08:05:56;98361.38;;;8.07;71.11
78667;BME280;67983;59.830;30.198;2023-03-14T08:08:23;98350.66;;;8.18;71.30
78667;BME280;67983;59.830;30.198;2023-03-14T08:10:50;98357.84;;;8.26;71.16
78667;BME280;67983;59.830;30.198;2023-03-14T08:13:20;98357.56;;;8.29;70.56
78667;BME280;67983;59.830;30.198;2023-03-14T08:15:50;98364.38;;;8.31;70.59
78667;BME280;67983;59.830;30.198;2023-03-14T08:18:17;98365.06;;;8.33;70.39
78667;BME280;67983;59.830;30.198;2023-03-14T08:20:43;98358.53;;;8.37;70.45
78667;BME280;67983;59.830;30.198;2023-03-14T08:23:12;98366.88;;;8.43;70.67
78667;BME280;67983;59.830;30.198;2023-03-14T08:25:39;98350.72;;;8.46;70.52
78667;BME280;67983;59.830;30.198;2023-03-14T08:28:06;98359.44;;;8.56;70.01
78667;BME280;67983;59.830;30.198;2023-03-14T08:30:34;98355.47;;;8.69;70.22
78667;BME280;67983;59.830;30.198;2023-03-14T08:33:01;98356.41;;;8.78;69.96
78667;BME280;67983;59.830;30.198;2023-03-14T08:35:28;98368.19;;;8.84;69.62
78667;BME280;67983;59.830;30.198;2023-03-14T08:37:55;98364.13;;;8.89;69.51
78667;BME280;67983;59.830;30.198;2023-03-14T08:40:25;98375.09;;;8.94;69.08
78667;BME280;67983;59.830;30.198;2023-03-14T08:42:56;98376.41;;;9.08;69.11
78667;BME280;67983;59.830;30.198;2023-03-14T08:45:23;98365.75;;;9.18;68.91
78667;BME280;67983;59.830;30.198;2023-03-14T08:47:50;98359.94;;;9.32;68.55
78667;BME280;67983;59.830;30.198;2023-03-14T08:50:22;98381.25;;;9.48;68.18
78667;BME280;67983;59.830;30.198;2023-03-14T08:53:00;98356.06;;;9.62;67.89
78667;BME280;67983;59.830;30.198;2023-03-14T08:55:29;98384.91;;;9.65;67.24
78667;BME280;67983;59.830;30.198;2023-03-14T08:57:56;98398.41;;;9.62;67.09
78667;BME280;67983;59.830;30.198;2023-03-14T09:00:25;98396.44;;;9.64;66.89
78667;BME280;67983;59.830;30.198;2023-03-14T09:02:53;98409.09;;;9.70;66.64
78667;BME280;67983;59.830;30.198;2023-03-14T09:05:20;98409.84;;;9.80;66.51
78667;BME280;67983;59.830;30.198;2023-03-14T09:07:47;98416.94;;;9.80;66.20
78667;BME280;67983;59.830;30.198;2023-03-14T09:10:14;98416.41;;;9.76;66.41
78667;BME280;67983;59.830;30.198;2023-03-14T09:12:43;98425.66;;;9.72;66.51
78667;BME280;67983;59.830;30.198;2023-03-14T09:15:10;98424.38;;;9.76;66.42
78667;BME280;67983;59.830;30.198;2023-03-14T09:17:37;98426.03;;;9.77;66.27
78667;BME280;67983;59.830;30.198;2023-03-14T09:20:06;98423.94;;;9.81;66.38
78667;BME280;67983;59.830;30.198;2023-03-14T09:22:34;98426.28;;;9.84;66.20
78667;BME280;67983;59.830;30.198;2023-03-14T09:25:02;98434.94;;;9.94;66.11
78667;BME280;67983;59.830;30.198;2023-03-14T09:27:33;98435.03;;;10.02;65.86
78667;BME280;67983;59.830;30.198;2023-03-14T09:30:02;98423.78;;;10.08;65.42
78667;BME280;67983;59.830;30.198;2023-03-14T09:32:29;98426.31;;;10.28;65.23
78667;BME280;67983;59.830;30.198;2023-03-14T09:34:57;98426.13;;;10.55;64.48
78667;BME280;67983;59.830;30.198;2023-03-14T09:37:24;98431.06;;;10.84;63.86
78667;BME280;67983;59.830;30.198;2023-03-14T09:39:53;98424.59;;;11.21;63.19
78667;BME280;67983;59.830;30.198;2023-03-14T09:42:26;98436.09;;;11.37;62.85
78667;BME280;67983;59.830;30.198;2023-03-14T09:44:56;98431.13;;;11.43;61.98
78667;BME280;67983;59.830;30.198;2023-03-14T09:47:50;98434.75;;;11.42;61.88
78667;BME280;67983;59.830;30.198;2023-03-14T09:50:19;98445.06;;;11.45;61.37
78667;BME280;67983;59.830;30.198;2023-03-14T09:52:50;98447.53;;;11.46;61.68
78667;BME280;67983;59.830;30.198;2023-03-14T09:55:20;98456.34;;;11.47;61.47
78667;BME280;67983;59.830;30.198;2023-03-14T09:57:49;98464.16;;;11.48;61.69
78667;BME280;67983;59.830;30.198;2023-03-14T10:00:21;98479.13;;;11.57;61.64
78667;BME280;67983;59.830;30.198;2023-03-14T10:02:56;98454.06;;;11.52;61.18
78667;BME280;67983;59.830;30.198;2023-03-14T10:05:26;98466.66;;;11.58;60.72
78667;BME280;67983;59.830;30.198;2023-03-14T10:07:55;98465.19;;;11.63;60.92
78667;BME280;67983;59.830;30.198;2023-03-14T10:10:24;98468.00;;;11.62;60.36
78667;BME280;67983;59.830;30.198;2023-03-14T10:12:57;98491.56;;;11.49;60.67
78667;BME280;67983;59.830;30.198;2023-03-14T10:15:28;98488.22;;;11.47;60.86
78667;BME280;67983;59.830;30.198;2023-03-14T10:17:59;98495.91;;;11.66;60.74
78667;BME280;67983;59.830;30.198;2023-03-14T10:20:30;98488.84;;;11.83;59.82
78667;BME280;67983;59.830;30.198;2023-03-14T10:23:03;98495.03;;;12.16;59.75
78667;BME280;67983;59.830;30.198;2023-03-14T10:25:33;98479.56;;;12.19;59.11
78667;BME280;67983;59.830;30.198;2023-03-14T10:28:03;98476.38;;;12.08;58.90
78667;BME280;67983;59.830;30.198;2023-03-14T10:30:38;98496.84;;;11.99;59.23
78667;BME280;67983;59.830;30.198;2023-03-14T10:33:18;98490.34;;;11.93;59.29
78667;BME280;67983;59.830;30.198;2023-03-14T10:35:53;98506.28;;;11.93;59.35
78667;BME280;67983;59.830;30.198;2023-03-14T10:38:23;98500.81;;;11.87;59.02
78667;BME280;67983;59.830;30.198;2023-03-14T10:40:52;98504.41;;;11.78;58.98
78667;BME280;67983;59.830;30.198;2023-03-14T10:43:23;98502.91;;;11.67;59.45
78667;BME280;67983;59.830;30.198;2023-03-14T10:45:58;98505.00;;;11.55;59.46
78667;BME280;67983;59.830;30.198;2023-03-14T10:48:35;98510.16;;;11.49;59.72
78667;BME280;67983;59.830;30.198;2023-03-14T10:51:05;98505.13;;;11.46;59.59
78667;BME280;67983;59.830;30.198;2023-03-14T10:53:38;98511.94;;;11.48;59.88
78667;BME280;67983;59.830;30.198;2023-03-14T10:56:09;98519.91;;;11.48;59.66
78667;BME280;67983;59.830;30.198;2023-03-14T10:58:41;98515.47;;;11.49;59.86
78667;BME280;67983;59.830;30.198;2023-03-14T11:01:20;98507.00;;;11.53;59.84
78667;BME280;67983;59.830;30.198;2023-03-14T11:03:57;98503.53;;;11.53;59.85
78667;BME280;67983;59.830;30.198;2023-03-14T11:06:36;98515.31;;;11.50;60.04
78667;BME280;67983;59.830;30.198;2023-03-14T11:09:12;98516.28;;;11.49;59.85
78667;BME280;67983;59.830;30.198;2023-03-14T11:11:46;98519.56;;;11.43;60.25
78667;BME280;67983;59.830;30.198;2023-03-14T11:14:20;98514.44;;;11.42;60.20
78667;BME280;67983;59.830;30.198;2023-03-14T11:16:54;98515.25;;;11.42;60.20
78667;BME280;67983;59.830;30.198;2023-03-14T11:19:44;98527.19;;;11.38;59.97
78667;BME280;67983;59.830;30.198;2023-03-14T11:22:21;98524.66;;;11.28;60.33
78667;BME280;67983;59.830;30.198;2023-03-14T11:25:16;98534.78;;;11.25;60.62
78667;BME280;67983;59.830;30.198;2023-03-14T11:27:54;98540.25;;;11.23;60.44
78667;BME280;67983;59.830;30.198;2023-03-14T11:30:30;98544.56;;;11.24;60.64
78667;BME280;67983;59.830;30.198;2023-03-14T11:33:07;98551.19;;;11.20;60.57
78667;BME280;67983;59.830;30.198;2023-03-14T11:35:44;98547.88;;;11.18;60.86
78667;BME280;67983;59.830;30.198;2023-03-14T11:38:19;98555.75;;;11.10;60.68
78667;BME280;67983;59.830;30.198;2023-03-14T11:40:53;98560.06;;;11.03;60.87
78667;BME280;67983;59.830;30.198;2023-03-14T11:43:27;98560.81;;;10.95;61.14
78667;BME280;67983;59.830;30.198;2023-03-14T11:46:03;98568.78;;;10.95;60.85
78667;BME280;67983;59.830;30.198;2023-03-14T11:48:37;98578.22;;;10.90;61.31
78667;BME280;67983;59.830;30.198;2023-03-14T11:51:16;98578.38;;;10.88;61.27
78667;BME280;67983;59.830;30.198;2023-03-14T11:53:55;98576.81;;;10.86;61.20
78667;BME280;67983;59.830;30.198;2023-03-14T11:56:32;98592.59;;;10.87;61.03
78667;BME280;67983;59.830;30.198;2023-03-14T11:59:07;98594.41;;;10.87;61.42
78667;BME280;67983;59.830;30.198;2023-03-14T12:01:49;98585.78;;;10.85;61.22
78667;BME280;67983;59.830;30.198;2023-03-14T12:04:39;98587.56;;;10.76;61.63
78667;BME280;67983;59.830;30.198;2023-03-14T12:07:17;98571.81;;;10.57;61.92
78667;BME280;67983;59.830;30.198;2023-03-14T12:10:19;98599.59;;;10.70;61.99
78667;BME280;67983;59.830;30.198;2023-03-14T12:12:48;98596.28;;;10.68;61.97
78667;BME280;67983;59.830;30.198;2023-03-14T12:15:20;98604.06;;;10.70;62.25
78667;BME280;67983;59.830;30.198;2023-03-14T12:17:54;98606.28;;;10.74;62.20
78667;BME280;67983;59.830;30.198;2023-03-14T12:20:25;98605.97;;;10.77;61.97
78667;BME280;67983;59.830;30.198;2023-03-14T12:22:55;98608.00;;;10.84;62.14
78667;BME280;67983;59.830;30.198;2023-03-14T12:25:26;98616.03;;;10.92;61.80
78667;BME280;67983;59.830;30.198;2023-03-14T12:28:17;98606.66;;;11.05;61.26
78667;BME280;67983;59.830;30.198;2023-03-14T12:30:50;98608.75;;;11.20;61.60
78667;BME280;67983;59.830;30.198;2023-03-14T12:33:29;98603.22;;;11.39;61.37
78667;BME280;67983;59.830;30.198;2023-03-14T12:36:04;98606.44;;;11.51;61.03
78667;BME280;67983;59.830;30.198;2023-03-14T12:39:03;98617.06;;;11.51;60.32
78667;BME280;67983;59.830;30.198;2023-03-14T12:41:38;98618.34;;;11.47;60.42
78667;BME280;67983;59.830;30.198;2023-03-14T12:44:45;98621.31;;;11.44;60.35
78667;BME280;67983;59.830;30.198;2023-03-14T12:50:15;98632.16;;;11.24;60.79
78667;BME280;67983;59.830;30.198;2023-03-14T12:53:13;98634.00;;;11.24;60.55
78667;BME280;67983;59.830;30.198;2023-03-14T12:55:46;98642.13;;;11.22;60.41
78667;BME280;67983;59.830;30.198;2023-03-14T12:58:26;98640.28;;;11.23;60.35
78667;BME280;67983;59.830;30.198;2023-03-14T13:00:59;98647.78;;;11.27;60.36
78667;BME280;67983;59.830;30.198;2023-03-14T13:03:43;98633.88;;;11.33;60.23
78667;BME280;67983;59.830;30.198;2023-03-14T13:06:12;98647.19;;;11.42;60.41
78667;BME280;67983;59.830;30.198;2023-03-14T13:08:41;98636.63;;;11.50;59.78
78667;BME280;67983;59.830;30.198;2023-03-14T13:11:15;98640.28;;;11.49;59.93
78667;BME280;67983;59.830;30.198;2023-03-14T13:13:48;98643.91;;;11.48;59.94
78667;BME280;67983;59.830;30.198;2023-03-14T13:16:17;98639.91;;;11.44;59.56
78667;BME280;67983;59.830;30.198;2023-03-14T13:18:45;98639.22;;;11.42;59.75
78667;BME280;67983;59.830;30.198;2023-03-14T13:21:16;98658.97;;;11.39;59.98
78667;BME280;67983;59.830;30.198;2023-03-14T13:23:57;98654.75;;;11.28;59.80
78667;BME280;67983;59.830;30.198;2023-03-14T13:26:33;98665.63;;;11.17;60.26
78667;BME280;67983;59.830;30.198;2023-03-14T13:29:09;98667.72;;;11.05;60.74
78667;BME280;67983;59.830;30.198;2023-03-14T13:31:44;98668.16;;;11.01;60.41